Time;durP1;ratioP1;P1;durP2;ratioP2;P2;SDS_P1;SDS_P2;PMS_P1;PMS_P2;Temp;Humidity;BMP_temperature;BMP_pressure;BME280_temperature;BME280_humidity;BME280_pressure;Samples;Min_cycle;Max_cycle;Signal;HPM_P1;HPM_P2
2022/12/04 00:01:14;;;;;;;2.70;2.40;;;;;;;7.87;64.04;100616.50;4357230;32;33586;-83
2022/12/04 00:03:42;;;;;;;4.00;3.62;;;;;;;7.31;65.91;100615.81;4371697;32;33922;-83
2022/12/04 00:06:15;;;;;;;5.78;3.92;;;;;;;7.62;64.80;100609.97;4369486;32;34440;-83
2022/12/04 00:08:44;;;;;;;0.82;0.82;;;;;;;7.44;65.12;100608.56;4359083;32;34258;-83
2022/12/04 00:11:15;;;;;;;2.35;2.25;;;;;;;7.53;65.20;100610.16;4358525;32;35911;-82
2022/12/04 00:13:43;;;;;;;3.12;2.87;;;;;;;7.16;66.53;100610.78;4377724;32;32599;-83
2022/12/04 00:16:17;;;;;;;2.00;1.87;;;;;;;7.21;66.61;100608.94;4371945;32;33022;-83
2022/12/04 00:18:45;;;;;;;1.12;1.12;;;;;;;7.61;64.80;100605.63;4352911;32;114828;-83
2022/12/04 00:21:15;;;;;;;2.67;2.47;;;;;;;7.31;65.89;100604.41;4357495;32;33170;-82
2022/12/04 00:23:43;;;;;;;1.80;1.70;;;;;;;7.49;65.46;100609.34;4363996;32;33232;-83
2022/12/04 00:26:17;;;;;;;1.08;1.08;;;;;;;6.89;67.37;100618.25;4370599;32;33472;-83
2022/12/04 00:28:45;;;;;;;1.85;1.58;;;;;;;7.28;65.73;100622.88;4371325;32;33512;-82
2022/12/04 00:31:17;;;;;;;2.72;2.53;;;;;;;7.14;66.51;100623.94;4361278;32;33313;-83
2022/12/04 00:33:45;;;;;;;4.93;3.00;;;;;;;7.33;65.78;100628.91;4370564;32;33807;-84
2022/12/04 00:36:15;;;;;;;1.50;1.45;;;;;;;7.55;65.10;100625.00;4375955;32;33788;-82
2022/12/04 00:38:43;;;;;;;4.55;2.50;;;;;;;7.47;65.32;100616.37;4369322;32;33568;-82
2022/12/04 00:41:13;;;;;;;3.92;3.58;;;;;;;7.30;65.71;100621.94;4372336;32;33964;-83
2022/12/04 00:43:41;;;;;;;3.62;3.33;;;;;;;7.43;65.35;100614.72;4362301;32;33310;-82
2022/12/04 00:46:09;;;;;;;4.75;2.95;;;;;;;7.73;64.28;100602.75;4372880;32;33827;-82
2022/12/04 00:48:37;;;;;;;7.47;2.85;;;;;;;7.45;65.03;100610.28;4376162;32;33036;-83
2022/12/04 00:51:08;;;;;;;2.47;2.33;;;;;;;7.41;64.97;100606.00;4383085;32;33681;-84
2022/12/04 00:53:37;;;;;;;6.53;3.40;;;;;;;7.44;64.95;100609.41;4372988;32;33519;-83
2022/12/04 00:56:10;;;;;;;1.10;1.10;;;;;;;7.37;65.18;100614.81;4375557;32;32055;-84
2022/12/04 00:58:39;;;;;;;4.72;3.25;;;;;;;7.27;65.42;100618.50;4372793;32;34664;-82
2022/12/04 01:01:12;;;;;;;6.37;3.05;;;;;;;7.37;65.06;100618.31;4371160;32;33038;-83
2022/12/04 01:03:41;;;;;;;2.78;2.58;;;;;;;7.35;64.98;100619.22;4351919;32;33267;-82
2022/12/04 01:06:21;;;;;;;3.35;3.08;;;;;;;7.19;65.65;100618.62;4369924;32;33379;-84
2022/12/04 01:08:50;;;;;;;2.12;2.03;;;;;;;7.16;65.86;100621.28;4350775;32;32055;-82
2022/12/04 01:11:18;;;;;;;0.82;0.80;;;;;;;7.17;66.02;100623.06;4370034;32;33439;-84
2022/12/04 01:13:46;;;;;;;1.08;1.08;;;;;;;7.02;66.75;100613.63;4375679;32;33042;-82
2022/12/04 01:16:26;;;;;;;2.83;2.67;;;;;;;7.30;65.76;100613.19;4371440;32;33365;-82
2022/12/04 01:18:54;;;;;;;2.55;2.35;;;;;;;7.27;66.04;100611.50;4358560;32;34459;-82
2022/12/04 01:21:22;;;;;;;1.83;1.73;;;;;;;7.57;65.25;100607.44;4369454;32;34256;-82
2022/12/04 01:23:50;;;;;;;5.53;3.35;;;;;;;6.95;67.07;100613.78;4358288;32;33867;-82
2022/12/04 01:26:17;;;;;;;2.03;1.65;;;;;;;7.40;65.91;100610.34;4370519;32;33586;-82
2022/12/04 01:28:45;;;;;;;2.75;2.65;;;;;;;7.32;66.14;100617.53;4356725;32;33712;-82
2022/12/04 01:31:15;;;;;;;4.93;3.87;;;;;;;6.79;67.86;100615.75;4357430;32;34083;-83
2022/12/04 01:33:44;;;;;;;1.85;1.75;;;;;;;6.74;68.56;100626.34;4356667;32;33146;-83
2022/12/04 01:36:15;;;;;;;2.55;2.40;;;;;;;7.07;67.62;100616.19;4345795;32;32742;-84
2022/12/04 01:38:43;;;;;;;1.92;1.55;;;;;;;6.70;68.63;100613.28;4343304;32;33699;-84
2022/12/04 01:41:12;;;;;;;1.42;1.33;;;;;;;6.97;67.52;100609.34;4356622;32;34175;-83
2022/12/04 01:43:40;;;;;;;2.40;1.45;;;;;;;6.94;67.83;100618.16;4371641;32;34052;-83
2022/12/04 01:46:08;;;;;;;2.25;2.15;;;;;;;6.65;69.12;100618.62;4358346;32;32274;-83
2022/12/04 01:48:39;;;;;;;2.80;2.35;;;;;;;6.86;68.25;100605.16;4344879;32;33553;-82
2022/12/04 01:51:14;;;;;;;6.43;4.60;;;;;;;6.79;68.33;100607.88;4381345;32;32944;-82
2022/12/04 01:53:44;;;;;;;3.17;2.90;;;;;;;6.91;67.54;100605.06;4375335;32;33251;-83
2022/12/04 01:56:13;;;;;;;2.72;2.53;;;;;;;6.78;68.43;100603.53;4367339;32;33346;-83
2022/12/04 01:58:43;;;;;;;1.95;1.85;;;;;;;6.69;68.66;100612.41;4369061;32;36614;-83
2022/12/04 02:01:11;;;;;;;4.40;2.40;;;;;;;6.79;68.26;100603.53;4362013;32;32653;-83
2022/12/04 02:03:39;;;;;;;4.57;3.92;;;;;;;6.55;69.06;100596.87;4383558;32;34047;-82
2022/12/04 02:06:07;;;;;;;2.85;2.65;;;;;;;6.29;69.75;100592.00;4371676;32;34360;-82
2022/12/04 02:08:35;;;;;;;2.03;1.90;;;;;;;6.69;68.33;100594.03;4373604;32;34541;-82
2022/12/04 02:11:12;;;;;;;2.47;2.37;;;;;;;6.10;70.28;100598.38;4361165;32;34758;-83
2022/12/04 02:14:02;;;;;;;1.37;1.30;;;;;;;6.69;68.12;100594.03;4361018;32;34497;-82
2022/12/04 02:16:44;;;;;;;4.57;4.18;;;;;;;6.59;68.52;100592.44;4357997;32;33034;-82
2022/12/04 02:19:49;;;;;;;1.15;1.15;;;;;;;6.68;68.21;100593.16;4370650;32;34176;-82
2022/12/04 02:22:55;;;;;;;5.82;3.28;;;;;;;6.76;67.48;100586.94;4357918;32;33001;-82
2022/12/04 02:25:34;;;;;;;2.03;1.92;;;;;;;6.55;68.16;100583.78;4341363;32;32357;-83
2022/12/04 02:28:18;;;;;;;2.28;2.17;;;;;;;6.27;68.88;100596.41;4377660;32;33062;-83
2022/12/04 02:30:46;;;;;;;3.80;2.62;;;;;;;6.68;67.33;100592.31;4374602;32;33634;-82
2022/12/04 02:33:21;;;;;;;3.83;2.85;;;;;;;6.81;66.74;100587.75;4361926;32;33898;-84
2022/12/04 02:35:55;;;;;;;1.25;1.25;;;;;;;6.47;67.96;100588.25;4369095;32;33382;-83
2022/12/04 02:38:34;;;;;;;2.62;1.90;;;;;;;6.45;68.13;100594.41;4368115;32;33551;-83
2022/12/04 02:41:10;;;;;;;4.10;2.62;;;;;;;6.35;68.26;100594.53;4373449;32;33701;-83
2022/12/04 02:43:47;;;;;;;1.45;1.27;;;;;;;6.20;68.83;100599.97;4359632;32;32996;-82
2022/12/04 02:46:19;;;;;;;2.45;2.35;;;;;;;6.13;68.66;100593.97;4364284;32;34121;-83
2022/12/04 02:48:48;;;;;;;;;;;;;;;6.23;68.66;100594.69;4371284;32;32496;-83
2022/12/04 02:51:18;;;;;;;2.15;1.95;;;;;;;6.25;68.70;100603.41;4363965;32;34888;-83
2022/12/04 02:53:54;;;;;;;2.80;2.70;;;;;;;6.48;67.82;100589.97;4357662;32;33750;-82
2022/12/04 02:56:29;;;;;;;3.05;2.85;;;;;;;6.37;68.16;100594.53;4357828;32;33007;-83
2022/12/04 02:59:00;;;;;;;3.83;3.53;;;;;;;6.33;68.11;100584.97;4360925;32;33179;-83
2022/12/04 03:01:38;;;;;;;1.48;1.42;;;;;;;6.04;69.46;100575.72;4359708;32;32768;-83
2022/12/04 03:04:10;;;;;;;1.35;1.35;;;;;;;5.71;71.01;100587.44;4376653;32;34368;-82
2022/12/04 03:06:39;;;;;;;3.90;3.10;;;;;;;5.57;71.18;100587.59;4357213;32;33556;-83
2022/12/04 03:09:17;;;;;;;1.23;1.12;;;;;;;5.65;71.51;100580.53;4372106;32;32900;-83
2022/12/04 03:11:49;;;;;;;3.08;2.80;;;;;;;5.70;71.23;100583.09;4370481;32;33603;-82
2022/12/04 03:14:21;;;;;;;3.80;2.78;;;;;;;6.16;69.42;100582.53;4368852;32;32755;-83
2022/12/04 03:16:52;;;;;;;3.47;3.17;;;;;;;5.74;70.65;100594.38;4370822;32;33261;-83
2022/12/04 03:19:24;;;;;;;4.85;4.55;;;;;;;5.94;70.17;100594.22;4370345;32;34297;-83
2022/12/04 03:21:57;;;;;;;2.28;2.17;;;;;;;5.82;70.57;100596.03;4370103;32;33926;-83
2022/12/04 03:24:41;;;;;;;3.10;2.80;;;;;;;5.87;70.29;100593.37;4356776;32;33050;-83
2022/12/04 03:27:14;;;;;;;7.32;3.25;;;;;;;5.96;70.06;100580.19;4359932;32;36224;-83
2022/12/04 03:29:53;;;;;;;3.90;2.65;;;;;;;5.77;70.66;100589.97;4369199;32;33387;-83
2022/12/04 03:32:33;;;;;;;16.83;1.67;;;;;;;6.09;69.81;100586.16;4359102;32;33863;-83
2022/12/04 03:35:04;;;;;;;1.92;1.83;;;;;;;6.51;68.11;100584.69;4369252;32;33609;-83
2022/12/04 03:37:41;;;;;;;3.47;3.17;;;;;;;6.49;67.80;100573.34;4358913;32;33363;-82
2022/12/04 03:40:15;;;;;;;3.05;2.85;;;;;;;6.46;68.25;100577.75;4370280;32;32030;-83
2022/12/04 03:42:47;;;;;;;1.48;1.40;;;;;;;6.29;68.64;100581.50;4347651;32;32715;-82
2022/12/04 03:45:28;;;;;;;1.20;1.20;;;;;;;6.04;69.54;100588.84;4371793;32;34470;-83
2022/12/04 03:48:04;;;;;;;1.80;1.70;;;;;;;6.44;67.83;100588.28;4356449;32;34848;-83
2022/12/04 03:50:46;;;;;;;3.85;3.58;;;;;;;6.31;67.89;100591.97;4369976;32;34422;-84
2022/12/04 03:53:19;;;;;;;;;;;;;;;5.80;69.94;100594.34;4361759;32;34429;-83
2022/12/04 03:56:04;;;;;;;3.50;2.25;;;;;;;6.29;68.39;100581.50;4356584;32;34037;-84
2022/12/04 03:58:33;;;;;;;1.20;1.20;;;;;;;6.08;68.77;100582.66;4348918;32;32990;-83
2022/12/04 04:01:02;;;;;;;3.95;3.65;;;;;;;6.03;69.27;100594.06;4349628;32;32554;-83
2022/12/04 04:03:33;;;;;;;1.70;1.65;;;;;;;5.86;69.75;100592.50;4370315;32;33837;-83
2022/12/04 04:06:05;;;;;;;2.33;2.17;;;;;;;6.15;68.42;100580.81;4371027;32;33934;-82
2022/12/04 04:08:35;;;;;;;1.87;1.77;;;;;;;6.14;68.30;100576.47;4358585;32;33890;-83
2022/12/04 04:11:12;;;;;;;2.83;2.58;;;;;;;6.18;68.18;100575.53;4372567;32;32970;-82
2022/12/04 04:25:10;;;;;;;3.10;2.78;;;;;;;5.75;69.29;100586.53;4358109;32;35398;-83
2022/12/04 04:27:38;;;;;;;12.07;2.33;;;;;;;5.77;68.87;100589.97;4370655;32;32405;-83
2022/12/04 04:30:08;;;;;;;1.37;1.30;;;;;;;5.42;70.60;100597.38;4371653;32;34945;-83
2022/12/04 04:32:44;;;;;;;6.35;2.80;;;;;;;5.96;68.44;100597.66;4357869;32;33632;-83
2022/12/04 04:35:49;;;;;;;7.75;6.32;;;;;;;6.07;67.55;100612.38;4360756;32;34574;-83
2022/12/04 04:38:24;;;;;;;8.68;3.42;;;;;;;5.74;68.66;100603.09;4382780;32;32902;-83
2022/12/04 04:41:12;;;;;;;0.47;0.47;;;;;;;5.56;68.79;100605.97;4357397;32;33436;-82
2022/12/04 04:44:02;;;;;;;2.85;2.62;;;;;;;5.60;68.87;100602.41;4364977;32;33583;-82
2022/12/04 04:46:32;;;;;;;1.75;1.65;;;;;;;5.22;70.12;100608.00;4359355;32;33647;-82
2022/12/04 04:49:04;;;;;;;3.40;2.97;;;;;;;5.65;68.96;100596.25;4358469;32;33835;-82
2022/12/04 04:51:33;;;;;;;1.98;1.87;;;;;;;5.25;70.13;100601.00;4367242;32;34420;-82
2022/12/04 04:54:04;;;;;;;0.50;0.47;;;;;;;5.76;68.18;100596.13;4370463;32;31647;-83
2022/12/04 04:56:31;;;;;;;1.37;1.33;;;;;;;5.59;68.76;100590.19;4368815;32;33832;-82
2022/12/04 04:58:58;;;;;;;1.60;1.23;;;;;;;5.46;69.10;100594.72;4371240;32;34361;-83
2022/12/04 05:01:27;;;;;;;5.50;3.33;;;;;;;5.60;68.57;100597.16;4364321;32;33523;-83
2022/12/04 05:03:55;;;;;;;4.57;2.72;;;;;;;5.80;67.91;100599.56;4369621;32;33054;-82
2022/12/04 05:06:22;;;;;;;1.40;1.33;;;;;;;5.78;67.73;100606.56;4355122;32;32998;-82
2022/12/04 05:08:50;;;;;;;0.28;0.28;;;;;;;5.78;67.12;100602.19;4348427;32;33101;-83
2022/12/04 05:11:17;;;;;;;3.25;1.42;;;;;;;6.07;66.59;100601.00;4366916;32;32882;-83
2022/12/04 05:13:45;;;;;;;0.60;0.60;;;;;;;6.06;66.17;100601.91;4359466;32;33189;-83
2022/12/04 05:16:14;;;;;;;3.90;3.55;;;;;;;5.73;67.26;100603.13;4371589;32;33752;-83
2022/12/04 05:21:28;;;;;;;1.25;1.23;;;;;;;5.80;67.05;100595.19;4370930;32;33476;-83
2022/12/04 05:23:56;;;;;;;3.37;3.15;;;;;;;5.77;66.93;100595.22;4361271;32;32752;-83
2022/12/04 05:26:23;;;;;;;1.92;1.83;;;;;;;5.83;66.69;100589.03;4359343;32;32614;-83
2022/12/04 05:28:51;;;;;;;0.65;0.65;;;;;;;6.06;66.08;100594.03;4348603;32;34540;-83
2022/12/04 05:31:19;;;;;;;2.08;1.98;;;;;;;5.94;66.17;100592.44;4370398;32;33838;-83
2022/12/04 05:33:47;;;;;;;1.23;1.17;;;;;;;5.82;66.36;100585.56;4358731;32;32710;-84
2022/12/04 05:36:14;;;;;;;2.40;2.12;;;;;;;5.79;66.58;100596.09;4348781;32;33443;-83
2022/12/04 05:38:42;;;;;;;4.32;1.70;;;;;;;5.95;66.12;100595.94;4362906;32;33161;-83
2022/12/04 05:41:09;;;;;;;3.40;1.15;;;;;;;5.74;66.35;100595.25;4386661;32;33778;-83
2022/12/04 05:43:37;;;;;;;23.45;3.78;;;;;;;5.64;66.48;100596.25;4359310;32;32023;-81
2022/12/04 05:46:07;;;;;;;1.70;1.60;;;;;;;5.93;66.04;100590.69;4371585;32;33968;-83
2022/12/04 05:48:35;;;;;;;0.00;0.00;;;;;;;5.93;65.92;100597.69;4353281;32;33061;-83
2022/12/04 05:51:07;;;;;;;0.57;0.57;;;;;;;5.84;66.22;100596.91;4377169;32;32457;-83
2022/12/04 05:53:35;;;;;;;1.55;1.23;;;;;;;6.19;64.72;100593.00;4360159;32;32948;-83
2022/12/04 05:56:04;;;;;;;1.17;1.08;;;;;;;6.27;64.44;100596.41;4375567;32;33882;-83
2022/12/04 05:58:36;;;;;;;2.15;2.05;;;;;;;5.98;65.28;100599.41;4376266;32;33381;-84
2022/12/04 06:01:12;;;;;;;4.35;3.92;;;;;;;5.78;65.90;100601.34;4360242;32;32993;-84
2022/12/04 06:03:40;;;;;;;0.57;0.57;;;;;;;5.77;66.30;100600.47;4373352;32;33363;-83
2022/12/04 06:06:16;;;;;;;0.55;0.55;;;;;;;5.92;65.74;100601.22;4369387;32;33898;-83
2022/12/04 06:08:54;;;;;;;1.60;1.25;;;;;;;5.66;66.52;100607.59;4359869;32;35159;-83
2022/12/04 06:11:33;;;;;;;0.62;0.45;;;;;;;5.94;65.44;100597.69;4373148;32;32826;-83
2022/12/04 06:14:03;;;;;;;1.75;1.65;;;;;;;5.96;65.65;100593.28;4371908;32;33184;-84
2022/12/04 06:16:33;;;;;;;0.77;0.75;;;;;;;6.23;64.50;100599.94;4360771;32;33237;-84
2022/12/04 06:19:05;;;;;;;0.93;0.90;;;;;;;5.84;65.38;100612.63;4373616;32;34509;-83
2022/12/04 06:21:35;;;;;;;1.50;1.40;;;;;;;6.12;64.55;100602.72;4357992;32;33388;-84
2022/12/04 06:24:04;;;;;;;0.28;0.28;;;;;;;6.36;64.34;100606.78;4370754;32;32613;-83
2022/12/04 06:26:31;;;;;;;2.20;1.65;;;;;;;5.93;65.39;100603.81;4349599;32;32974;-82
2022/12/04 06:28:59;;;;;;;1.85;1.73;;;;;;;5.74;66.25;100605.72;4370826;32;32992;-83
2022/12/04 06:31:28;;;;;;;1.33;1.27;;;;;;;5.58;66.94;100614.66;4363331;32;32615;-83
2022/12/04 06:33:56;;;;;;;1.10;0.85;;;;;;;5.45;67.65;100618.28;4370511;32;32154;-83
2022/12/04 06:36:24;;;;;;;0.75;0.75;;;;;;;5.52;67.51;100620.81;4358894;32;30940;-83
2022/12/04 06:38:54;;;;;;;1.50;1.40;;;;;;;5.37;67.87;100619.22;4368577;32;32922;-83
2022/12/04 06:41:24;;;;;;;0.00;0.00;;;;;;;5.95;66.12;100609.91;4350240;32;33866;-83
2022/12/04 06:43:51;;;;;;;2.22;2.03;;;;;;;5.90;66.31;100609.06;4359139;32;33657;-83
2022/12/04 06:46:22;;;;;;;1.27;0.95;;;;;;;6.07;65.86;100599.25;4367034;32;32771;-83
2022/12/04 06:48:50;;;;;;;1.35;1.35;;;;;;;6.27;65.22;100601.66;4358501;32;32467;-83
2022/12/04 06:51:24;;;;;;;3.03;2.83;;;;;;;6.57;64.09;100583.72;4368624;32;33153;-83
2022/12/04 06:53:52;;;;;;;3.47;3.17;;;;;;;6.31;65.30;100594.56;4378159;32;33166;-83
2022/12/04 06:56:23;;;;;;;0.57;0.57;;;;;;;6.03;66.41;100607.19;4370678;32;33776;-83
2022/12/04 06:58:53;;;;;;;2.97;1.92;;;;;;;6.05;66.44;100594.94;4374866;32;34771;-82
2022/12/04 07:01:23;;;;;;;2.37;2.00;;;;;;;5.97;66.92;100602.03;4363872;32;33209;-83
2022/12/04 07:03:51;;;;;;;1.95;1.85;;;;;;;6.31;65.91;100587.56;4363706;32;32450;-83
2022/12/04 07:06:36;;;;;;;1.15;1.10;;;;;;;6.41;65.58;100594.47;4359661;32;33308;-82
2022/12/04 07:09:06;;;;;;;2.78;1.92;;;;;;;6.56;64.93;100587.25;4365520;32;33335;-82
2022/12/04 07:11:34;;;;;;;1.75;0.70;;;;;;;6.39;65.65;100596.22;4369274;32;32951;-83
2022/12/04 07:14:02;;;;;;;2.42;2.05;;;;;;;6.18;66.78;100596.53;4360166;32;32913;-82
2022/12/04 07:16:30;;;;;;;0.68;0.60;;;;;;;6.28;66.34;100600.75;4358735;32;33301;-83
2022/12/04 07:19:10;;;;;;;4.70;1.10;;;;;;;6.28;66.30;100598.12;4361003;32;33839;-82
2022/12/04 07:21:40;;;;;;;2.42;2.33;;;;;;;6.24;66.93;100599.06;4374898;32;34546;-83
2022/12/04 07:24:10;;;;;;;3.40;2.80;;;;;;;6.15;67.28;100599.16;4372984;32;32748;-83
2022/12/04 07:26:38;;;;;;;0.95;0.95;;;;;;;6.29;67.20;100605.09;4356133;32;34756;-81
2022/12/04 07:29:06;;;;;;;0.70;0.70;;;;;;;6.18;67.57;100593.03;4349877;32;33268;-81
2022/12/04 07:31:33;;;;;;;6.37;3.15;;;;;;;6.25;66.97;100595.53;4371197;32;34512;-81
2022/12/04 07:34:01;;;;;;;1.67;1.58;;;;;;;6.35;67.38;100596.28;4358854;32;33207;-82
2022/12/04 07:36:29;;;;;;;1.52;1.42;;;;;;;5.90;68.78;100599.44;4348560;32;33714;-83
2022/12/04 07:38:56;;;;;;;0.90;0.90;;;;;;;5.89;69.25;100604.72;4371675;32;34405;-82
2022/12/04 07:41:24;;;;;;;0.65;0.65;;;;;;;5.82;69.58;100609.13;4374249;32;32933;-84
2022/12/04 07:43:53;;;;;;;1.10;1.08;;;;;;;6.25;68.17;100599.91;4371732;32;32153;-85
2022/12/04 07:46:26;;;;;;;2.72;1.12;;;;;;;6.50;67.56;100597.81;4370327;32;32724;-84
2022/12/04 07:48:56;;;;;;;3.62;3.37;;;;;;;6.25;67.97;100603.41;4375024;32;33855;-84
2022/12/04 07:51:26;;;;;;;3.20;2.95;;;;;;;6.52;67.55;100606.56;4372247;32;33455;-85
2022/12/04 07:53:57;;;;;;;2.00;1.90;;;;;;;6.76;66.94;100606.19;4384222;32;33279;-84
2022/12/04 07:56:31;;;;;;;0.93;0.93;;;;;;;6.53;67.77;100610.91;4359755;32;32981;-83
2022/12/04 07:58:59;;;;;;;2.42;2.22;;;;;;;6.74;66.89;100605.34;4355179;32;33529;-84
2022/12/04 08:01:27;;;;;;;2.90;2.72;;;;;;;6.37;68.25;100603.25;4363961;32;31913;-84
2022/12/04 08:03:56;;;;;;;1.33;1.33;;;;;;;6.88;66.54;100595.50;4381982;32;33270;-83
2022/12/04 08:06:26;;;;;;;4.05;3.62;;;;;;;6.57;67.60;100597.72;4374178;32;32840;-84
2022/12/04 08:08:54;;;;;;;5.18;3.58;;;;;;;6.51;67.70;100603.06;4373609;32;33721;-83
2022/12/04 08:11:23;;;;;;;1.73;1.62;;;;;;;6.46;67.81;100604.00;4354353;32;33029;-84
2022/12/04 08:13:56;;;;;;;1.10;1.00;;;;;;;6.76;67.13;100611.44;4371240;32;33838;-83
2022/12/04 08:16:25;;;;;;;3.37;3.17;;;;;;;6.49;68.15;100603.97;4378691;32;32900;-84
2022/12/04 08:18:53;;;;;;;2.17;1.95;;;;;;;6.78;66.76;100604.38;4371098;32;34338;-84
2022/12/04 08:21:23;;;;;;;1.02;1.02;;;;;;;6.66;67.48;100599.34;4374483;32;34202;-84
2022/12/04 08:23:52;;;;;;;1.62;1.58;;;;;;;7.04;66.41;100595.25;4372225;32;32362;-84
2022/12/04 08:26:22;;;;;;;3.12;2.78;;;;;;;7.12;66.03;100588.09;4377275;32;33715;-83
2022/12/04 08:28:52;;;;;;;5.57;3.97;;;;;;;6.78;67.08;100601.75;4359426;32;33298;-83
2022/12/04 08:31:23;;;;;;;4.32;3.50;;;;;;;7.02;66.60;100599.66;4367229;32;33837;-84
2022/12/04 08:33:54;;;;;;;7.00;6.35;;;;;;;7.15;66.44;100607.28;4349162;32;34544;-84
2022/12/04 08:36:22;;;;;;;2.08;1.75;;;;;;;6.82;67.54;100606.09;4380944;32;33955;-85
2022/12/04 08:38:50;;;;;;;3.28;2.97;;;;;;;7.24;66.35;100600.16;4372401;32;33079;-84
2022/12/04 08:41:20;;;;;;;6.60;2.72;;;;;;;7.36;65.93;100598.19;4370319;32;33246;-83
2022/12/04 08:43:49;;;;;;;4.65;3.53;;;;;;;7.56;64.79;100583.81;4362876;32;33471;-83
2022/12/04 08:46:17;;;;;;;3.30;3.05;;;;;;;7.36;65.96;100602.59;4379120;32;33908;-83
2022/12/04 08:48:45;;;;;;;1.45;1.42;;;;;;;7.12;67.16;100609.09;4364208;32;32683;-83
2022/12/04 08:51:16;;;;;;;4.70;4.40;;;;;;;7.37;65.92;100604.31;4362211;32;31931;-83
2022/12/04 08:53:44;;;;;;;2.72;2.53;;;;;;;7.30;66.10;100603.53;4347607;32;33056;-83
2022/12/04 08:56:12;;;;;;;2.12;2.03;;;;;;;7.27;66.70;100606.25;4371935;32;33507;-84
2022/12/04 08:58:40;;;;;;;9.02;3.05;;;;;;;7.73;64.92;100605.38;4383362;32;33104;-83
2022/12/04 09:01:10;;;;;;;1.77;1.67;;;;;;;7.43;65.26;100605.06;4361017;32;33102;-83
2022/12/04 09:03:38;;;;;;;2.85;2.12;;;;;;;7.37;66.03;100605.19;4360084;32;32608;-83
2022/12/04 09:06:08;;;;;;;5.60;3.30;;;;;;;7.42;66.22;100592.81;4370526;32;33180;-84
2022/12/04 09:08:39;;;;;;;1.52;1.42;;;;;;;7.49;65.84;100596.19;4373130;32;33852;-83
2022/12/04 09:11:09;;;;;;;4.87;4.45;;;;;;;7.68;65.08;100584.44;4384018;32;33439;-84
2022/12/04 09:13:37;;;;;;;4.57;3.15;;;;;;;7.61;65.11;100592.50;4360018;32;32342;-83
2022/12/04 09:16:07;;;;;;;3.37;3.17;;;;;;;7.42;65.77;100587.56;4383083;32;34671;-83
2022/12/04 09:18:36;;;;;;;5.80;3.58;;;;;;;7.50;66.02;100586.53;4370832;32;33284;-83
2022/12/04 09:21:06;;;;;;;4.05;3.25;;;;;;;7.94;64.19;100581.31;4382804;32;32535;-83
2022/12/04 09:23:35;;;;;;;3.03;2.80;;;;;;;7.10;66.93;100590.75;4366875;32;33639;-84
2022/12/04 09:26:05;;;;;;;2.95;2.75;;;;;;;7.26;66.98;100583.47;4380970;32;34571;-83
2022/12/04 09:28:33;;;;;;;5.43;1.90;;;;;;;7.55;66.46;100587.31;4359698;32;33103;-83
2022/12/04 09:31:03;;;;;;;3.67;2.83;;;;;;;7.77;66.38;100578.12;4372803;32;30885;-83
2022/12/04 09:33:32;;;;;;;2.75;2.50;;;;;;;8.02;64.72;100572.37;4354244;32;32672;-83
2022/12/04 09:36:00;;;;;;;0.98;0.98;;;;;;;7.95;65.04;100571.66;4359757;32;32803;-83
2022/12/04 09:38:29;;;;;;;2.25;2.15;;;;;;;8.48;63.75;100560.88;4365864;32;34200;-86
2022/12/04 09:41:03;;;;;;;4.07;2.70;;;;;;;8.60;63.04;100560.62;4365905;32;32451;-88
2022/12/04 09:43:48;;;;;;;3.97;3.60;;;;;;;8.26;64.36;100561.34;4380537;32;32314;-86
2022/12/04 09:46:23;;;;;;;2.20;2.05;;;;;;;8.51;63.30;100556.44;4369536;32;33174;-87
2022/12/04 09:48:51;;;;;;;3.15;2.78;;;;;;;8.06;64.61;100545.97;4368073;32;33857;-85
2022/12/04 09:51:22;;;;;;;5.45;2.70;;;;;;;8.42;63.53;100541.72;4358848;32;33548;-89
2022/12/04 09:54:16;;;;;;;1.60;1.50;;;;;;;8.02;64.67;100540.81;4372843;32;33606;-89
2022/12/04 09:57:38;;;;;;;0.37;0.37;;;;;;;8.12;64.34;100535.34;4374698;32;33357;-89
2022/12/04 10:00:37;;;;;;;1.48;1.42;;;;;;;7.84;65.46;100529.81;4363910;32;34329;-89
2022/12/04 10:03:14;;;;;;;16.37;3.50;;;;;;;8.03;65.06;100537.31;4355550;32;34099;-89
2022/12/04 10:06:11;;;;;;;1.87;1.35;;;;;;;7.87;65.29;100528.87;4369524;32;32784;-89
2022/12/04 10:08:41;;;;;;;1.37;1.37;;;;;;;8.13;64.63;100530.94;4371521;32;34445;-89
2022/12/04 10:11:16;;;;;;;3.28;2.42;;;;;;;8.45;63.71;100520.59;4348974;32;33222;-89
2022/12/04 10:14:22;;;;;;;1.98;1.45;;;;;;;8.54;62.89;100521.25;4364502;32;33799;-89
2022/12/04 10:16:50;;;;;;;1.98;1.85;;;;;;;8.86;62.01;100526.59;4362684;32;32164;-89
2022/12/04 10:19:19;;;;;;;1.65;1.55;;;;;;;8.72;62.70;100515.56;4372183;32;33228;-88
2022/12/04 10:22:11;;;;;;;2.42;2.22;;;;;;;8.60;62.34;100507.97;4361143;32;34037;-88
2022/12/04 10:24:39;;;;;;;;;;;;;;;8.51;63.59;100506.41;4376188;32;32912;-89
2022/12/04 10:27:41;;;;;;;3.05;2.42;;;;;;;9.18;60.91;100504.69;4368565;32;32234;-89
2022/12/04 10:30:19;;;;;;;2.33;1.75;;;;;;;9.30;59.68;100500.84;4352331;32;32941;-89
2022/12/04 10:32:51;;;;;;;2.12;1.73;;;;;;;9.30;59.85;100503.50;4372613;32;33350;-89
2022/12/04 10:35:25;;;;;;;2.97;2.45;;;;;;;9.39;59.83;100486.56;4345909;32;31188;-89
2022/12/04 10:38:01;;;;;;;2.55;2.35;;;;;;;9.18;60.44;100495.94;4373762;32;33786;-88
2022/12/04 10:40:34;;;;;;;6.70;2.35;;;;;;;9.14;61.53;100489.03;4363648;32;32816;-89
2022/12/04 10:43:14;;;;;;;1.62;1.23;;;;;;;9.34;60.08;100485.84;4380564;32;32929;-89
2022/12/04 10:45:42;;;;;;;0.60;0.60;;;;;;;9.27;59.09;100485.16;4358512;32;32733;-89
2022/12/04 10:48:19;;;;;;;2.87;2.35;;;;;;;9.42;56.64;100476.81;4363138;32;33416;-88
2022/12/04 10:50:47;;;;;;;4.40;3.37;;;;;;;9.65;56.78;100472.66;4382741;32;32927;-87
2022/12/04 10:53:15;;;;;;;0.45;0.45;;;;;;;9.92;56.25;100476.22;4358341;32;34390;-88
2022/12/04 10:55:43;;;;;;;0.45;0.45;;;;;;;9.35;57.11;100463.84;4374532;32;34825;-89
2022/12/04 10:58:16;;;;;;;1.15;1.12;;;;;;;9.21;57.10;100461.63;4369341;32;32617;-87
2022/12/04 11:00:44;;;;;;;4.20;1.90;;;;;;;9.20;57.86;100465.13;4387545;32;33643;-88
2022/12/04 11:03:24;;;;;;;0.98;0.98;;;;;;;9.83;56.55;100447.53;4381391;32;34385;-89
2022/12/04 11:06:12;;;;;;;5.32;1.52;;;;;;;9.69;56.93;100437.37;4352541;32;33655;-88
2022/12/04 11:08:43;;;;;;;1.02;0.98;;;;;;;10.19;55.62;100440.22;4357480;32;33481;-89
2022/12/04 11:11:28;;;;;;;3.05;2.00;;;;;;;9.80;55.98;100437.06;4376424;32;34339;-87
2022/12/04 11:14:13;;;;;;;0.75;0.75;;;;;;;9.93;56.28;100428.72;4362162;32;33850;-88
2022/12/04 11:16:47;;;;;;;6.18;1.83;;;;;;;9.51;56.58;100424.75;4371932;32;32378;-88
2022/12/04 11:19:26;;;;;;;1.50;1.40;;;;;;;9.35;56.94;100422.56;4372252;32;33837;-89
2022/12/04 11:21:58;;;;;;;3.87;2.65;;;;;;;9.78;55.48;100418.66;4357837;32;33623;-88
2022/12/04 11:24:32;;;;;;;3.13;2.47;;;;;;;9.59;56.61;100425.34;4361437;32;33546;-87
2022/12/04 11:27:03;;;;;;;7.30;1.80;;;;;;;8.96;59.11;100422.75;4369890;32;33761;-87
2022/12/04 11:29:35;;;;;;;2.35;2.15;;;;;;;9.13;59.41;100424.06;4373529;32;31615;-87
2022/12/04 11:32:04;;;;;;;0.47;0.47;;;;;;;9.59;57.65;100417.44;4383872;32;33864;-88
2022/12/04 11:34:38;;;;;;;1.30;1.20;;;;;;;9.47;57.88;100416.06;4358983;32;33225;-87
2022/12/04 11:37:17;;;;;;;0.80;0.80;;;;;;;9.69;57.89;100416.28;4370292;32;33131;-88
2022/12/04 11:39:46;;;;;;;1.87;1.77;;;;;;;9.94;57.13;100419.03;4380576;32;32182;-87
2022/12/04 11:42:22;;;;;;;4.20;2.33;;;;;;;9.61;57.99;100407.75;4363512;32;32496;-88
2022/12/04 11:45:14;;;;;;;5.65;3.22;;;;;;;9.91;57.59;100409.41;4358762;32;34288;-87
2022/12/04 11:47:52;;;;;;;2.42;2.00;;;;;;;9.99;57.45;100407.41;4358312;32;34567;-87
2022/12/04 11:50:29;;;;;;;1.37;1.37;;;;;;;9.57;58.57;100398.19;4361539;32;35218;-85
2022/12/04 11:53:15;;;;;;;2.83;2.10;;;;;;;9.52;57.63;100395.69;4385603;32;33922;-84
2022/12/04 11:56:08;;;;;;;1.75;0.77;;;;;;;9.78;57.58;100392.28;4374419;32;33647;-84
2022/12/04 11:59:04;;;;;;;1.35;0.90;;;;;;;9.66;58.36;100400.56;4372768;32;33148;-84
2022/12/04 12:01:44;;;;;;;3.87;2.70;;;;;;;9.92;58.00;100389.19;4381517;32;33112;-84
2022/12/04 12:04:19;;;;;;;4.43;2.30;;;;;;;9.82;57.69;100388.59;4362833;32;32452;-84
2022/12/04 12:07:29;;;;;;;1.75;1.67;;;;;;;9.40;59.06;100390.75;4358945;32;32645;-85
2022/12/04 12:10:24;;;;;;;1.00;0.75;;;;;;;9.35;59.15;100397.94;4357996;32;33541;-85
2022/12/04 12:13:14;;;;;;;2.87;2.35;;;;;;;9.51;58.99;100393.09;4341568;32;32157;-84
2022/12/04 12:16:09;;;;;;;2.12;1.55;;;;;;;9.88;58.00;100404.25;4374699;32;33942;-84